Time;durP1;ratioP1;P1;durP2;ratioP2;P2;SDS_P1;SDS_P2;PMS_P1;PMS_P2;Temp;Humidity;BMP_temperature;BMP_pressure;BME280_temperature;BME280_humidity;BME280_pressure;Samples;Min_cycle;Max_cycle;Signal;HPM_P1;HPM_P2
2021/09/17 00:00:11;;;;;;;27.58;18.10;;;;;;;10.38;100.00;99568.09;4998602;28;20042;-70
2021/09/17 00:02:36;;;;;;;30.95;18.55;;;;;;;10.32;100.00;99567.19;4996016;28;20125;-71
2021/09/17 00:05:03;;;;;;;34.92;18.85;;;;;;;10.36;100.00;99567.50;4995265;28;20172;-71
2021/09/17 00:07:29;;;;;;;28.95;18.88;;;;;;;10.34;100.00;99565.06;5005409;28;20062;-71
2021/09/17 00:09:54;;;;;;;34.35;19.73;;;;;;;10.42;100.00;99561.19;5001631;28;20070;-70
2021/09/17 00:12:22;;;;;;;27.55;17.10;;;;;;;10.35;100.00;99547.84;4994962;28;20546;-70
2021/09/17 00:14:48;;;;;;;28.45;17.63;;;;;;;10.29;100.00;99550.72;5000078;28;20045;-70
2021/09/17 00:17:14;;;;;;;25.98;17.58;;;;;;;10.21;100.00;99552.75;5007936;28;20042;-71
2021/09/17 00:19:40;;;;;;;27.85;17.80;;;;;;;10.24;100.00;99546.88;5000248;28;20492;-70
2021/09/17 00:22:05;;;;;;;24.73;16.08;;;;;;;10.19;100.00;99549.50;5010198;28;20080;-70
2021/09/17 00:24:32;;;;;;;25.38;16.70;;;;;;;10.18;100.00;99542.47;5004953;28;20049;-70
2021/09/17 00:26:59;;;;;;;34.28;16.05;;;;;;;10.13;100.00;99542.41;5001493;28;20041;-70
2021/09/17 00:29:25;;;;;;;27.58;17.95;;;;;;;10.19;100.00;99537.91;4996110;28;20035;-71
2021/09/17 00:31:51;;;;;;;27.23;16.60;;;;;;;10.14;100.00;99538.66;4997967;28;20037;-70
2021/09/17 00:34:17;;;;;;;23.83;16.17;;;;;;;10.10;100.00;99529.44;5008601;28;20026;-70
2021/09/17 00:36:43;;;;;;;23.25;16.08;;;;;;;10.15;100.00;99532.22;4989216;28;20533;-70
2021/09/17 00:39:12;;;;;;;25.65;17.05;;;;;;;10.13;100.00;99523.56;5001215;28;20518;-70
2021/09/17 00:41:42;;;;;;;29.77;15.95;;;;;;;10.11;100.00;99523.78;5008793;28;20038;-70
2021/09/17 00:44:10;;;;;;;26.55;16.08;;;;;;;10.09;100.00;99530.50;5008519;28;20037;-70
2021/09/17 00:46:36;;;;;;;23.95;14.55;;;;;;;10.06;100.00;99526.41;5005197;28;20037;-70
2021/09/17 00:49:02;;;;;;;22.15;15.80;;;;;;;10.09;100.00;99519.72;4998127;28;20038;-70
2021/09/17 00:51:28;;;;;;;30.65;17.67;;;;;;;10.13;100.00;99520.88;4992933;28;20046;-70
2021/09/17 00:53:54;;;;;;;24.33;15.50;;;;;;;10.11;100.00;99514.91;5003057;28;20042;-70
2021/09/17 00:56:19;;;;;;;21.10;13.57;;;;;;;10.06;100.00;99510.25;5001300;28;20037;-70
2021/09/17 00:58:45;;;;;;;22.23;14.25;;;;;;;10.02;100.00;99508.31;5008426;28;20040;-70
2021/09/17 01:01:11;;;;;;;20.73;13.27;;;;;;;9.97;100.00;99509.03;5009269;28;20036;-70
2021/09/17 01:03:38;;;;;;;22.48;13.05;;;;;;;9.93;100.00;99514.09;5009059;28;20126;-70
2021/09/17 01:06:04;;;;;;;19.00;13.00;;;;;;;9.89;100.00;99504.06;4993973;28;20057;-70
2021/09/17 01:08:31;;;;;;;22.88;14.55;;;;;;;9.94;100.00;99509.53;5001456;28;20044;-70
2021/09/17 01:10:58;;;;;;;17.45;12.20;;;;;;;9.91;100.00;99497.38;4999282;28;20050;-70
2021/09/17 01:13:23;;;;;;;20.02;12.70;;;;;;;9.89;100.00;99496.81;4999585;28;20057;-70
2021/09/17 01:15:50;;;;;;;18.48;12.55;;;;;;;9.86;100.00;99496.47;5006639;28;20046;-71
2021/09/17 01:18:16;;;;;;;23.98;14.77;;;;;;;9.95;100.00;99495.84;4993403;28;20034;-70
2021/09/17 01:20:42;;;;;;;24.33;14.88;;;;;;;10.03;100.00;99499.19;4999529;28;20590;-70
2021/09/17 01:23:08;;;;;;;22.38;15.18;;;;;;;10.17;100.00;99497.78;4994539;28;20035;-70
2021/09/17 01:25:34;;;;;;;20.02;14.73;;;;;;;10.14;100.00;99490.22;5001943;28;20054;-70
2021/09/17 01:28:04;;;;;;;21.92;14.00;;;;;;;10.10;100.00;99486.38;5005887;28;20123;-70
2021/09/17 01:30:30;;;;;;;21.05;13.63;;;;;;;10.06;100.00;99482.53;5004182;28;20034;-70
2021/09/17 01:32:56;;;;;;;18.48;12.70;;;;;;;9.99;100.00;99477.31;5002465;28;20057;-70
2021/09/17 01:35:23;;;;;;;23.23;14.07;;;;;;;10.08;100.00;99477.72;5004520;28;20034;-70
2021/09/17 01:37:49;;;;;;;20.45;14.00;;;;;;;10.00;100.00;99472.75;5000712;28;20037;-70
2021/09/17 01:40:16;;;;;;;21.75;14.93;;;;;;;10.05;100.00;99472.84;5005409;28;20408;-70
2021/09/17 01:42:42;;;;;;;21.60;14.60;;;;;;;10.06;100.00;99472.59;5000272;28;20468;-70
2021/09/17 01:45:11;;;;;;;19.65;12.95;;;;;;;9.95;100.00;99473.47;5001549;28;20274;-70
2021/09/17 01:47:38;;;;;;;22.60;13.55;;;;;;;9.86;100.00;99467.72;5001162;28;20385;-70
2021/09/17 01:50:05;;;;;;;23.20;13.75;;;;;;;9.80;100.00;99471.38;4992489;28;20030;-69
2021/09/17 01:52:31;;;;;;;20.42;13.70;;;;;;;9.76;100.00;99465.66;4997444;28;20116;-70
2021/09/17 01:54:56;;;;;;;18.83;13.65;;;;;;;9.72;100.00;99461.84;4996628;28;20053;-70
2021/09/17 01:57:22;;;;;;;21.80;14.48;;;;;;;9.68;100.00;99468.75;5004509;28;20110;-70
2021/09/17 01:59:47;;;;;;;22.83;13.95;;;;;;;9.65;100.00;99453.91;5007199;28;20436;-70
2021/09/17 02:02:13;;;;;;;31.58;17.80;;;;;;;9.70;100.00;99458.56;5000245;28;20190;-70
2021/09/17 02:04:39;;;;;;;23.98;16.30;;;;;;;9.64;100.00;99454.16;5002924;28;20034;-70
2021/09/17 02:07:04;;;;;;;33.25;17.75;;;;;;;9.62;100.00;99454.38;5006626;28;20569;-71
2021/09/17 02:09:30;;;;;;;27.48;17.38;;;;;;;9.60;100.00;99459.19;4992047;28;20026;-71
2021/09/17 02:11:56;;;;;;;26.15;16.67;;;;;;;9.60;100.00;99445.75;4999738;28;20077;-71
2021/09/17 02:14:21;;;;;;;24.80;17.42;;;;;;;9.61;100.00;99454.66;5002435;28;20042;-70
2021/09/17 02:16:47;;;;;;;27.17;18.23;;;;;;;9.52;100.00;99446.97;4996357;28;20660;-70
2021/09/17 02:19:12;;;;;;;29.88;18.25;;;;;;;9.52;100.00;99449.69;5003882;28;20084;-71
2021/09/17 02:21:39;;;;;;;30.88;18.55;;;;;;;9.49;100.00;99446.63;5007937;28;20084;-70
2021/09/17 02:24:06;;;;;;;26.20;17.63;;;;;;;9.46;100.00;99447.13;5010094;28;20114;-70
2021/09/17 02:26:33;;;;;;;35.88;20.02;;;;;;;9.51;100.00;99444.53;5000886;28;20031;-70
2021/09/17 02:29:00;;;;;;;40.20;22.70;;;;;;;9.67;100.00;99432.97;5000598;28;20039;-70
2021/09/17 02:31:25;;;;;;;33.35;21.20;;;;;;;9.68;100.00;99439.16;5006521;28;20038;-70
2021/09/17 02:33:51;;;;;;;31.38;19.83;;;;;;;9.64;100.00;99438.84;5002768;28;20032;-70
2021/09/17 02:36:16;;;;;;;36.58;20.65;;;;;;;9.60;100.00;99432.31;4998798;28;20046;-70
2021/09/17 02:38:42;;;;;;;33.00;20.77;;;;;;;9.53;100.00;99437.03;5005773;28;20503;-70
2021/09/17 02:41:08;;;;;;;37.65;22.00;;;;;;;9.51;100.00;99428.41;5003055;28;20038;-70
2021/09/17 02:43:34;;;;;;;45.72;24.25;;;;;;;9.60;100.00;99432.31;5007857;28;20023;-70
2021/09/17 02:45:59;;;;;;;43.78;26.35;;;;;;;9.62;100.00;99427.50;4995695;28;20042;-70
2021/09/17 02:48:28;;;;;;;44.88;25.33;;;;;;;9.77;100.00;99420.78;4993236;28;20025;-69
2021/09/17 02:50:54;;;;;;;50.95;28.83;;;;;;;9.86;100.00;99422.00;4993606;28;20027;-70
2021/09/17 02:53:20;;;;;;;41.60;25.35;;;;;;;9.78;100.00;99417.03;5008731;28;20438;-70
2021/09/17 02:55:45;;;;;;;49.22;27.55;;;;;;;9.79;100.00;99415.97;4999205;28;20049;-68
2021/09/17 02:58:11;;;;;;;52.35;30.23;;;;;;;9.80;100.00;99417.59;4996070;28;20018;-69
2021/09/17 03:00:39;;;;;;;58.05;31.83;;;;;;;9.86;100.00;99408.53;4996630;28;20113;-69
2021/09/17 03:03:05;;;;;;;74.32;38.83;;;;;;;9.98;100.00;99413.81;4991983;28;20038;-71
2021/09/17 03:05:31;;;;;;;121.07;52.50;;;;;;;10.08;100.00;99403.19;5004446;28;20049;-70
2021/09/17 03:07:56;;;;;;;118.88;56.90;;;;;;;10.20;100.00;99399.56;5000273;28;20475;-69
2021/09/17 03:10:22;;;;;;;120.20;57.08;;;;;;;10.38;100.00;99395.78;5003551;28;20429;-69
2021/09/17 03:12:47;;;;;;;133.18;59.15;;;;;;;10.51;100.00;99390.06;4998423;28;20044;-69
2021/09/17 03:15:14;;;;;;;119.47;55.80;;;;;;;10.57;100.00;99392.81;5000521;28;20038;-71
2021/09/17 03:17:40;;;;;;;119.20;56.83;;;;;;;10.60;100.00;99395.00;4997765;28;20076;-70
2021/09/17 03:20:06;;;;;;;123.80;56.80;;;;;;;10.61;100.00;99391.25;4996766;28;20495;-70
2021/09/17 03:22:31;;;;;;;117.30;54.28;;;;;;;10.62;100.00;99382.94;4994860;28;20033;-69
2021/09/17 03:24:57;;;;;;;108.18;52.65;;;;;;;10.59;100.00;99385.31;4990032;28;20402;-70
2021/09/17 03:27:23;;;;;;;106.85;50.67;;;;;;;10.52;100.00;99394.38;4997187;28;20045;-69
2021/09/17 03:29:48;;;;;;;113.97;52.92;;;;;;;10.51;100.00;99384.69;4989244;28;20123;-69
2021/09/17 03:32:14;;;;;;;95.75;49.03;;;;;;;10.51;100.00;99381.97;5000529;28;20501;-69
2021/09/17 03:34:39;;;;;;;90.30;45.92;;;;;;;10.51;100.00;99381.16;5008093;28;20038;-70
2021/09/17 03:37:05;;;;;;;87.90;45.20;;;;;;;10.54;100.00;99373.41;4992175;28;20039;-69
2021/09/17 03:39:30;;;;;;;92.05;46.15;;;;;;;10.54;100.00;99377.97;4999273;28;20112;-69
2021/09/17 03:41:56;;;;;;;82.53;44.40;;;;;;;10.55;100.00;99382.28;5007603;28;20563;-69
2021/09/17 03:44:22;;;;;;;93.53;47.05;;;;;;;10.56;100.00;99367.75;4997160;28;20030;-69
2021/09/17 03:46:48;;;;;;;87.55;45.92;;;;;;;10.58;100.00;99367.50;5001158;28;20076;-69
2021/09/17 03:49:14;;;;;;;79.68;44.03;;;;;;;10.48;100.00;99370.88;5002690;28;20108;-69
2021/09/17 03:51:40;;;;;;;78.55;43.35;;;;;;;10.45;100.00;99366.84;4995545;28;20022;-69
2021/09/17 03:54:05;;;;;;;85.32;45.92;;;;;;;10.45;100.00;99353.38;5000542;28;20510;-69
2021/09/17 03:56:31;;;;;;;94.88;43.65;;;;;;;10.43;100.00;99362.75;5003996;28;20030;-69
2021/09/17 03:58:57;;;;;;;86.20;44.28;;;;;;;10.41;100.00;99363.00;4973408;28;20563;-70
2021/09/17 04:01:22;;;;;;;88.03;43.80;;;;;;;10.40;100.00;99359.50;5001421;28;20165;-70
2021/09/17 04:03:48;;;;;;;83.18;43.65;;;;;;;10.47;100.00;99355.78;4999346;28;20042;-69
2021/09/17 04:06:13;;;;;;;83.80;43.03;;;;;;;10.51;100.00;99348.84;4998080;28;20034;-69
2021/09/17 04:08:39;;;;;;;87.57;41.30;;;;;;;10.50;100.00;99352.59;5004933;28;20127;-69
2021/09/17 04:11:04;;;;;;;83.85;43.78;;;;;;;10.50;100.00;99333.75;5006697;28;20025;-69
2021/09/17 04:13:30;;;;;;;88.40;44.53;;;;;;;10.46;100.00;99343.41;4999934;28;20109;-69
2021/09/17 04:15:55;;;;;;;97.20;46.65;;;;;;;10.47;100.00;99345.03;4978237;28;20483;-70
2021/09/17 04:18:21;;;;;;;81.32;44.92;;;;;;;10.42;100.00;99347.66;4998455;28;20377;-70
2021/09/17 04:20:47;;;;;;;86.03;43.15;;;;;;;10.34;100.00;99348.91;5007934;28;20034;-69
2021/09/17 04:23:13;;;;;;;86.22;43.25;;;;;;;10.29;100.00;99352.31;5000963;28;20439;-68
2021/09/17 04:25:38;;;;;;;96.65;43.95;;;;;;;10.25;100.00;99352.03;5003002;28;20069;-70
2021/09/17 04:28:04;;;;;;;80.88;41.63;;;;;;;10.27;100.00;99356.34;4996869;28;20117;-73
2021/09/17 04:30:29;;;;;;;78.72;40.10;;;;;;;10.22;100.00;99349.84;4999176;28;20392;-70
2021/09/17 04:32:55;;;;;;;81.55;38.83;;;;;;;10.19;100.00;99353.03;4997424;28;20065;-70
2021/09/17 04:35:20;;;;;;;78.45;38.10;;;;;;;10.17;100.00;99346.25;4991628;28;20085;-70
2021/09/17 04:37:48;;;;;;;72.97;38.28;;;;;;;10.14;100.00;99347.56;5000976;28;20041;-70
2021/09/17 04:40:16;;;;;;;69.20;38.13;;;;;;;10.13;100.00;99342.44;4997526;28;20085;-69
2021/09/17 04:42:41;;;;;;;66.07;35.67;;;;;;;10.09;100.00;99344.81;4991367;28;20101;-69
2021/09/17 04:45:08;;;;;;;63.38;34.30;;;;;;;10.05;100.00;99343.69;5008145;28;20555;-69
2021/09/17 04:47:34;;;;;;;71.75;33.67;;;;;;;10.05;100.00;99343.69;4998248;28;20030;-69
2021/09/17 04:50:03;;;;;;;54.80;30.70;;;;;;;10.01;100.00;99348.75;4993624;28;20080;-69
2021/09/17 04:52:29;;;;;;;62.30;32.83;;;;;;;9.96;100.00;99345.97;5005587;28;20376;-69
2021/09/17 04:54:57;;;;;;;76.72;36.92;;;;;;;9.95;100.00;99341.66;4993853;28;20042;-69
2021/09/17 04:57:22;;;;;;;58.60;30.58;;;;;;;9.89;100.00;99345.34;4993390;28;20030;-69
2021/09/17 04:59:48;;;;;;;50.22;27.77;;;;;;;9.77;100.00;99340.88;5002560;28;21015;-69
2021/09/17 05:02:13;;;;;;;48.25;28.50;;;;;;;9.72;100.00;99338.13;4997831;28;20488;-69
2021/09/17 05:04:39;;;;;;;48.85;26.75;;;;;;;9.61;100.00;99331.78;5001434;28;20500;-69
2021/09/17 05:07:04;;;;;;;46.85;26.90;;;;;;;9.55;100.00;99331.94;4996436;28;20492;-69
2021/09/17 05:09:33;;;;;;;59.47;31.35;;;;;;;9.60;100.00;99329.34;5005253;28;20033;-69
2021/09/17 05:11:59;;;;;;;54.50;27.58;;;;;;;9.50;100.00;99324.59;4992999;28;20034;-69
2021/09/17 05:14:25;;;;;;;51.97;28.10;;;;;;;9.42;100.00;99327.72;4993605;28;20089;-69
2021/09/17 05:16:51;;;;;;;43.55;25.52;;;;;;;9.35;100.00;99330.56;4996916;28;20555;-69
2021/09/17 05:19:18;;;;;;;51.28;26.95;;;;;;;9.33;100.00;99330.81;5000757;28;20117;-69
2021/09/17 05:21:44;;;;;;;53.33;26.52;;;;;;;9.32;100.00;99326.50;5008227;28;20565;-70
2021/09/17 05:24:10;;;;;;;67.78;34.78;;;;;;;9.41;100.00;99337.66;4994449;28;20535;-69
2021/09/17 05:26:36;;;;;;;48.88;29.13;;;;;;;9.47;100.00;99335.84;5000594;28;20132;-69
2021/09/17 05:29:02;;;;;;;67.18;31.90;;;;;;;9.70;100.00;99336.72;5002239;28;20034;-69
2021/09/17 05:31:28;;;;;;;71.95;31.40;;;;;;;9.79;100.00;99341.44;4999649;28;20480;-69
2021/09/17 05:33:53;;;;;;;69.90;33.33;;;;;;;9.82;100.00;99334.78;4995492;28;20069;-69
2021/09/17 05:36:19;;;;;;;76.53;34.17;;;;;;;9.87;100.00;99329.47;4999977;28;20034;-72
2021/09/17 05:38:45;;;;;;;71.57;31.27;;;;;;;9.82;100.00;99332.88;4993023;28;20112;-69
2021/09/17 05:41:10;;;;;;;60.60;29.40;;;;;;;9.84;100.00;99337.22;5001797;28;20042;-69
2021/09/17 05:43:36;;;;;;;72.25;35.72;;;;;;;9.85;100.00;99345.03;5002689;28;20045;-69
2021/09/17 05:46:01;;;;;;;73.13;35.78;;;;;;;9.86;100.00;99338.59;4981504;28;20408;-69
2021/09/17 05:48:27;;;;;;;62.28;32.85;;;;;;;9.79;100.00;99337.97;4998392;28;20033;-69
2021/09/17 05:50:52;;;;;;;60.97;32.28;;;;;;;9.74;100.00;99341.38;4998686;28;20504;-69
2021/09/17 05:53:18;;;;;;;68.88;34.72;;;;;;;9.73;100.00;99339.75;5001676;28;20041;-69
2021/09/17 05:55:44;;;;;;;57.67;30.80;;;;;;;9.61;100.00;99342.53;4998625;28;20111;-71
2021/09/17 05:58:10;;;;;;;63.95;32.05;;;;;;;9.55;100.00;99348.09;5000570;28;20034;-73
2021/09/17 06:00:36;;;;;;;94.07;37.60;;;;;;;9.57;100.00;99335.22;5004460;28;20038;-69
2021/09/17 06:03:02;;;;;;;63.63;31.45;;;;;;;9.50;100.00;99351.50;4980640;28;20388;-72
2021/09/17 06:05:27;;;;;;;78.65;35.95;;;;;;;9.48;100.00;99350.91;4994851;28;20544;-71
2021/09/17 06:07:53;;;;;;;82.95;38.97;;;;;;;9.54;100.00;99352.63;5003897;28;20184;-69
2021/09/17 06:10:19;;;;;;;95.38;41.10;;;;;;;9.60;100.00;99351.66;4994423;28;20046;-70
2021/09/17 06:12:45;;;;;;;86.43;39.30;;;;;;;9.63;100.00;99344.97;5004306;28;20112;-70
2021/09/17 06:15:11;;;;;;;61.40;31.40;;;;;;;9.58;100.00;99343.00;4998007;28;20136;-69
2021/09/17 06:17:37;;;;;;;70.85;32.75;;;;;;;9.61;100.00;99342.53;5011908;28;20026;-71
2021/09/17 06:20:04;;;;;;;60.10;30.52;;;;;;;9.51;100.00;99350.44;4995834;28;20038;-70
2021/09/17 06:22:29;;;;;;;53.97;30.27;;;;;;;9.55;100.00;99348.09;5003779;28;20045;-70
2021/09/17 06:24:55;;;;;;;49.45;28.48;;;;;;;9.54;100.00;99346.44;5001870;28;20038;-69
2021/09/17 06:27:20;;;;;;;57.08;30.27;;;;;;;9.60;100.00;99353.53;5004156;28;20107;-70
2021/09/17 06:29:46;;;;;;;50.95;27.95;;;;;;;9.69;100.00;99343.16;4978149;28;20037;-70
2021/09/17 06:32:11;;;;;;;60.88;32.78;;;;;;;9.80;100.00;99348.47;5001144;28;20041;-69
2021/09/17 06:34:37;;;;;;;69.80;34.20;;;;;;;9.99;100.00;99350.06;5005705;28;20065;-69
2021/09/17 06:37:03;;;;;;;54.97;30.40;;;;;;;10.10;100.00;99338.38;5002339;28;20510;-68
2021/09/17 06:39:28;;;;;;;48.17;24.88;;;;;;;10.24;100.00;99346.88;5001601;28;20483;-69
2021/09/17 06:41:54;;;;;;;33.22;18.85;;;;;;;10.40;100.00;99347.94;5001042;28;20052;-69
2021/09/17 06:44:20;;;;;;;32.60;17.52;;;;;;;10.52;100.00;99347.78;4995081;28;20034;-72
2021/09/17 06:46:47;;;;;;;29.27;16.63;;;;;;;10.61;100.00;99349.00;5009268;28;20065;-70
2021/09/17 06:49:13;;;;;;;23.10;14.38;;;;;;;10.71;100.00;99347.47;4998904;28;20050;-70
2021/09/17 06:51:39;;;;;;;22.67;12.32;;;;;;;10.80;100.00;99345.94;5003655;28;20511;-70
2021/09/17 06:54:04;;;;;;;25.30;12.45;;;;;;;10.87;100.00;99345.72;4997605;28;20034;-70
2021/09/17 06:56:30;;;;;;;16.50;11.68;;;;;;;10.96;100.00;99346.91;5000308;28;20495;-70
2021/09/17 06:58:57;;;;;;;25.95;11.25;;;;;;;11.02;100.00;99351.25;4996732;28;20113;-70
2021/09/17 07:01:25;;;;;;;19.35;10.20;;;;;;;11.08;100.00;99349.44;5003996;28;20030;-70
2021/09/17 07:03:51;;;;;;;19.63;10.32;;;;;;;11.13;100.00;99350.28;5002598;28;20472;-70
2021/09/17 07:06:17;;;;;;;18.88;11.20;;;;;;;11.19;100.00;99355.72;4995404;28;20070;-71
2021/09/17 07:08:43;;;;;;;15.82;9.73;;;;;;;11.29;100.00;99358.50;5006326;28;20036;-70
2021/09/17 07:11:09;;;;;;;20.73;10.15;;;;;;;11.39;100.00;99349.72;5000645;28;20042;-70
2021/09/17 07:13:35;;;;;;;19.60;9.70;;;;;;;11.46;100.00;99360.25;4998327;28;20065;-70
2021/09/17 07:16:02;;;;;;;24.38;12.32;;;;;;;11.62;100.00;99353.94;5001662;28;20754;-70
2021/09/17 07:18:28;;;;;;;19.15;10.15;;;;;;;11.76;100.00;99356.97;4999729;28;20556;-70
2021/09/17 07:20:54;;;;;;;16.13;8.85;;;;;;;11.80;100.00;99350.00;4995970;28;20039;-69
2021/09/17 07:23:20;;;;;;;17.48;8.38;;;;;;;11.85;100.00;99349.22;4997176;28;20029;-69
2021/09/17 07:25:47;;;;;;;14.35;8.52;;;;;;;11.91;100.00;99348.19;5005666;28;20045;-69
2021/09/17 07:28:14;;;;;;;13.05;8.20;;;;;;;11.96;100.00;99344.69;4990860;28;20033;-70
2021/09/17 07:30:39;;;;;;;13.85;8.73;;;;;;;12.03;100.00;99344.50;5005326;28;20416;-69
2021/09/17 07:33:05;;;;;;;14.73;8.63;;;;;;;12.12;100.00;99345.63;4999368;28;20087;-71
2021/09/17 07:35:32;;;;;;;18.92;7.95;;;;;;;12.14;98.43;99343.47;4994165;28;20030;-70
2021/09/17 07:37:58;;;;;;;14.30;8.82;;;;;;;12.12;97.63;99340.22;5001666;28;20052;-70
2021/09/17 07:40:26;;;;;;;13.30;7.97;;;;;;;12.12;97.65;99342.91;4999287;28;20041;-70
2021/09/17 07:42:53;;;;;;;13.80;7.43;;;;;;;12.17;97.83;99342.94;4998173;28;20157;-70
2021/09/17 07:45:21;;;;;;;14.80;7.70;;;;;;;12.18;96.60;99349.97;4998365;28;20038;-71
2021/09/17 07:47:47;;;;;;;13.15;7.10;;;;;;;12.22;97.42;99353.78;4997883;28;20119;-71
2021/09/17 07:50:15;;;;;;;10.20;6.70;;;;;;;12.19;96.54;99348.91;4997269;28;20065;-70
2021/09/17 07:52:41;;;;;;;11.25;6.93;;;;;;;12.24;97.10;99354.31;5001351;28;20175;-70
2021/09/17 07:55:08;;;;;;;14.50;7.05;;;;;;;12.30;97.42;99358.66;4997554;28;20120;-70
2021/09/17 07:57:33;;;;;;;12.55;6.93;;;;;;;12.37;97.24;99357.59;4997151;28;20030;-70
2021/09/17 07:59:59;;;;;;;13.70;7.95;;;;;;;12.39;96.51;99369.78;5006999;28;20026;-70
2021/09/17 08:02:24;;;;;;;15.13;7.70;;;;;;;12.41;96.37;99359.53;5000053;28;20030;-70
2021/09/17 08:04:50;;;;;;;13.27;8.10;;;;;;;12.43;95.83;99362.78;4999492;28;20042;-70
2021/09/17 08:07:16;;;;;;;14.45;8.00;;;;;;;12.46;95.66;99361.44;4995190;28;20046;-70
2021/09/17 08:09:41;;;;;;;13.70;8.50;;;;;;;12.48;95.57;99356.56;4996852;28;20049;-71
2021/09/17 08:12:07;;;;;;;18.42;7.85;;;;;;;12.54;95.69;99352.00;4993449;28;20066;-70
2021/09/17 08:14:33;;;;;;;14.65;7.88;;;;;;;12.62;95.58;99361.47;4998323;28;20169;-74
2021/09/17 08:16:59;;;;;;;15.85;7.65;;;;;;;12.69;95.52;99359.34;4993624;28;20042;-70
2021/09/17 08:19:25;;;;;;;19.15;8.02;;;;;;;12.83;94.78;99363.16;4993538;28;20042;-70
2021/09/17 08:21:50;;;;;;;12.88;7.60;;;;;;;12.93;94.84;99366.97;4993123;28;20506;-70
2021/09/17 08:24:16;;;;;;;14.13;7.60;;;;;;;12.97;93.99;99368.03;4998811;28;20045;-70
2021/09/17 08:26:49;;;;;;;14.93;7.50;;;;;;;13.08;93.77;99377.78;5001758;28;20037;-70
2021/09/17 08:29:15;;;;;;;10.88;7.47;;;;;;;13.16;93.34;99377.25;5000597;28;20034;-70
2021/09/17 08:31:41;;;;;;;13.20;7.35;;;;;;;13.20;92.39;99379.44;5000717;28;20068;-69
2021/09/17 08:34:08;;;;;;;13.50;6.90;;;;;;;13.24;93.27;99380.50;5001646;28;20030;-69
2021/09/17 08:36:34;;;;;;;12.48;7.40;;;;;;;13.29;91.87;99383.25;5001058;28;20133;-69
2021/09/17 08:38:59;;;;;;;13.18;7.22;;;;;;;13.19;92.08;99384.03;4995707;28;20026;-69
2021/09/17 08:41:26;;;;;;;11.45;7.38;;;;;;;13.38;91.67;99381.63;4994964;28;20618;-71
2021/09/17 08:43:52;;;;;;;13.07;7.47;;;;;;;13.30;91.60;99382.97;4998848;28;20446;-70
2021/09/17 08:46:19;;;;;;;14.93;8.07;;;;;;;13.31;92.21;99387.28;4999685;28;20505;-70
2021/09/17 08:48:49;;;;;;;12.32;7.75;;;;;;;13.40;91.05;99382.19;5003866;28;20030;-69
2021/09/17 08:51:15;;;;;;;15.40;7.43;;;;;;;13.60;90.36;99384.09;4993647;28;20472;-70
2021/09/17 08:53:41;;;;;;;12.05;7.20;;;;;;;13.67;89.91;99378.41;5002282;28;20033;-70
2021/09/17 08:56:08;;;;;;;10.82;7.20;;;;;;;13.84;88.86;99377.31;4999542;28;20033;-69
2021/09/17 08:58:34;;;;;;;12.02;6.88;;;;;;;14.16;86.35;99374.25;4997450;28;20037;-69
2021/09/17 09:01:00;;;;;;;12.55;6.60;;;;;;;14.27;85.90;99376.94;4997623;28;20041;-69
2021/09/17 09:03:31;;;;;;;8.75;6.10;;;;;;;14.39;84.81;99377.44;4997608;28;20048;-69
2021/09/17 09:06:09;;;;;;;10.05;6.13;;;;;;;14.62;84.56;99378.66;4998692;28;20487;-69
2021/09/17 09:08:38;;;;;;;10.85;5.75;;;;;;;14.81;83.71;99369.94;4995757;28;20141;-69
2021/09/17 09:11:17;;;;;;;10.23;5.22;;;;;;;14.95;82.87;99370.13;5000451;28;20652;-69
2021/09/17 09:14:03;;;;;;;9.52;5.20;;;;;;;15.08;82.17;99380.34;5005472;28;20384;-69
2021/09/17 09:16:30;;;;;;;9.80;5.72;;;;;;;14.98;81.96;99371.44;5003373;28;20042;-69
2021/09/17 09:18:56;;;;;;;14.00;5.45;;;;;;;15.01;81.80;99377.16;5005757;28;20109;-69
2021/09/17 09:21:30;;;;;;;12.48;5.90;;;;;;;14.96;81.67;99381.78;5000454;28;20646;-68
2021/09/17 09:24:23;;;;;;;10.90;4.97;;;;;;;14.88;82.54;99370.44;4996501;28;20456;-68
2021/09/17 09:27:10;;;;;;;10.60;5.07;;;;;;;14.86;82.81;99378.03;4986808;28;20137;-68
2021/09/17 09:29:37;;;;;;;8.63;5.30;;;;;;;15.09;82.89;99378.47;4992751;28;20126;-68
2021/09/17 09:32:03;;;;;;;7.47;4.38;;;;;;;15.11;82.59;99378.16;4990953;28;20034;-68
2021/09/17 09:34:51;;;;;;;9.65;5.00;;;;;;;15.16;82.42;99373.53;4992899;28;20088;-68
2021/09/17 09:37:21;;;;;;;9.10;5.05;;;;;;;15.18;82.51;99370.53;4993010;28;20034;-68
2021/09/17 09:39:52;;;;;;;8.00;4.60;;;;;;;15.24;82.98;99374.03;5000771;28;20043;-68
2021/09/17 09:42:35;;;;;;;9.27;4.47;;;;;;;15.28;82.65;99370.44;4993000;28;20101;-69
2021/09/17 09:45:18;;;;;;;19.73;4.35;;;;;;;15.31;82.42;99371.78;4994659;28;20480;-68
2021/09/17 09:47:49;;;;;;;8.88;3.75;;;;;;;15.30;81.71;99381.81;4995601;28;20176;-69
2021/09/17 09:50:24;;;;;;;10.40;3.63;;;;;;;15.31;81.37;99375.31;4994021;28;20033;-68
2021/09/17 09:52:55;;;;;;;10.15;3.95;;;;;;;15.34;81.33;99366.59;4995531;28;20501;-68
2021/09/17 09:55:21;;;;;;;8.63;3.55;;;;;;;15.30;81.04;99370.19;4992848;28;20034;-69
2021/09/17 09:57:47;;;;;;;9.65;3.80;;;;;;;15.25;82.08;99367.50;4995474;28;20034;-69
2021/09/17 10:00:14;;;;;;;12.77;4.45;;;;;;;15.33;81.74;99367.69;4996139;28;20029;-69
2021/09/17 10:02:42;;;;;;;8.95;3.90;;;;;;;15.44;80.67;99371.16;4994238;28;20031;-69
2021/09/17 10:05:11;;;;;;;8.68;3.83;;;;;;;15.60;80.75;99366.38;5001285;28;20046;-70
2021/09/17 10:07:38;;;;;;;4.38;3.33;;;;;;;15.69;80.05;99361.16;5007260;28;20045;-70
2021/09/17 10:10:10;;;;;;;7.07;4.07;;;;;;;15.99;79.42;99363.88;4996228;28;20030;-70
2021/09/17 10:12:37;;;;;;;8.85;3.58;;;;;;;15.99;77.88;99364.69;4997377;28;20045;-69
2021/09/17 10:15:03;;;;;;;7.95;3.53;;;;;;;15.90;78.81;99363.69;4997018;28;20065;-69
2021/09/17 10:17:32;;;;;;;8.88;3.53;;;;;;;15.99;78.78;99369.31;4993055;28;20049;-69
2021/09/17 10:20:00;;;;;;;10.20;3.88;;;;;;;16.07;79.12;99371.41;4999193;28;20033;-69
2021/09/17 10:22:35;;;;;;;12.20;3.40;;;;;;;16.26;78.06;99370.66;4994025;28;20113;-69
2021/09/17 10:25:09;;;;;;;12.20;3.13;;;;;;;16.32;76.60;99366.78;4994731;28;20034;-69
2021/09/17 10:27:37;;;;;;;10.25;3.20;;;;;;;16.07;77.66;99366.78;5011039;28;20049;-69
2021/09/17 10:30:09;;;;;;;8.60;3.35;;;;;;;16.20;77.20;99364.47;4989865;28;20026;-68
2021/09/17 10:32:46;;;;;;;7.72;3.40;;;;;;;16.49;76.45;99364.38;5000330;28;20033;-68
2021/09/17 10:35:23;;;;;;;6.65;3.22;;;;;;;16.58;75.24;99369.97;4994854;28;20499;-68
2021/09/17 10:38:25;;;;;;;8.90;3.70;;;;;;;16.72;74.69;99361.91;4997279;28;20100;-68
2021/09/17 10:41:02;;;;;;;7.55;3.95;;;;;;;16.74;75.31;99372.47;4976639;28;20462;-68
2021/09/17 10:43:38;;;;;;;10.85;3.42;;;;;;;16.88;75.06;99373.41;4999958;28;20085;-68
2021/09/17 10:46:08;;;;;;;7.93;4.38;;;;;;;16.94;74.04;99363.25;5000627;28;20049;-68
2021/09/17 10:48:40;;;;;;;9.18;3.78;;;;;;;16.87;74.69;99365.53;5005212;28;20033;-68
2021/09/17 10:51:05;;;;;;;9.65;3.85;;;;;;;16.67;75.19;99360.06;5000058;28;20035;-68
2021/09/17 10:53:40;;;;;;;8.13;3.72;;;;;;;16.69;75.43;99366.00;4993324;28;21005;-68
2021/09/17 10:56:12;;;;;;;10.77;3.83;;;;;;;16.69;74.29;99363.28;4997445;28;20113;-68
2021/09/17 10:58:41;;;;;;;10.23;3.55;;;;;;;16.44;75.22;99369.06;5005322;28;20053;-68
2021/09/17 11:01:11;;;;;;;8.38;4.13;;;;;;;16.22;76.38;99365.81;5000370;28;20100;-68
2021/09/17 11:03:36;;;;;;;9.10;4.60;;;;;;;16.31;76.54;99376.81;4982068;28;20399;-67
2021/09/17 11:06:26;;;;;;;9.43;3.90;;;;;;;16.26;76.24;99370.66;4999607;28;20040;-68
2021/09/17 11:08:55;;;;;;;8.48;3.90;;;;;;;16.22;76.55;99373.94;5002541;28;20103;-69
2021/09/17 11:11:23;;;;;;;6.70;3.72;;;;;;;16.41;75.72;99372.38;5002779;28;20052;-68
2021/09/17 11:13:49;;;;;;;4.88;3.00;;;;;;;16.42;73.98;99372.09;4998055;28;20042;-69
2021/09/17 11:16:16;;;;;;;8.20;3.17;;;;;;;16.49;72.52;99374.44;5004131;28;20054;-69